sensor_id;sensor_type;location;lat;lon;timestamp;P1;durP1;ratioP1;P2;durP2;ratioP2
11066;SDS011;29763;50.904;5.530;2023-03-01T00:01:17;8.17;;;6.97;;
11066;SDS011;29763;50.904;5.530;2023-03-01T00:03:46;9.90;;;7.23;;
11066;SDS011;29763;50.904;5.530;2023-03-01T00:06:13;10.57;;;7.17;;
11066;SDS011;29763;50.904;5.530;2023-03-01T00:08:39;7.60;;;6.80;;
11066;SDS011;29763;50.904;5.530;2023-03-01T00:11:13;8.63;;;7.00;;
11066;SDS011;29763;50.904;5.530;2023-03-01T00:13:40;7.87;;;7.07;;
11066;SDS011;29763;50.904;5.530;2023-03-01T00:16:07;8.53;;;7.53;;
11066;SDS011;29763;50.904;5.530;2023-03-01T00:18:37;11.43;;;7.13;;
11066;SDS011;29763;50.904;5.530;2023-03-01T00:21:03;9.70;;;6.73;;
11066;SDS011;29763;50.904;5.530;2023-03-01T00:23:30;7.50;;;6.37;;
11066;SDS011;29763;50.904;5.530;2023-03-01T00:26:05;10.07;;;7.20;;
11066;SDS011;29763;50.904;5.530;2023-03-01T00:28:33;9.17;;;7.00;;
11066;SDS011;29763;50.904;5.530;2023-03-01T00:33:56;9.93;;;6.93;;
11066;SDS011;29763;50.904;5.530;2023-03-01T00:36:26;7.57;;;6.77;;
11066;SDS011;29763;50.904;5.530;2023-03-01T00:38:59;8.60;;;7.23;;
11066;SDS011;29763;50.904;5.530;2023-03-01T00:41:25;8.87;;;7.73;;
11066;SDS011;29763;50.904;5.530;2023-03-01T00:43:52;9.10;;;7.63;;
11066;SDS011;29763;50.904;5.530;2023-03-01T00:46:20;12.13;;;8.20;;
11066;SDS011;29763;50.904;5.530;2023-03-01T00:48:48;9.63;;;7.90;;
11066;SDS011;29763;50.904;5.530;2023-03-01T00:51:15;9.67;;;8.00;;
11066;SDS011;29763;50.904;5.530;2023-03-01T00:53:44;9.93;;;7.60;;
11066;SDS011;29763;50.904;5.530;2023-03-01T00:56:11;9.33;;;7.97;;
11066;SDS011;29763;50.904;5.530;2023-03-01T00:58:42;10.00;;;8.13;;
11066;SDS011;29763;50.904;5.530;2023-03-01T01:01:13;9.47;;;7.70;;
11066;SDS011;29763;50.904;5.530;2023-03-01T01:03:50;9.30;;;7.77;;
11066;SDS011;29763;50.904;5.530;2023-03-01T01:06:19;9.70;;;8.00;;
11066;SDS011;29763;50.904;5.530;2023-03-01T01:08:47;11.00;;;7.70;;
11066;SDS011;29763;50.904;5.530;2023-03-01T01:11:14;9.63;;;7.87;;
11066;SDS011;29763;50.904;5.530;2023-03-01T01:13:41;13.17;;;8.33;;
11066;SDS011;29763;50.904;5.530;2023-03-01T01:16:07;9.77;;;8.17;;
11066;SDS011;29763;50.904;5.530;2023-03-01T01:18:34;9.70;;;7.90;;
11066;SDS011;29763;50.904;5.530;2023-03-01T01:21:10;9.90;;;7.80;;
11066;SDS011;29763;50.904;5.530;2023-03-01T01:23:39;10.17;;;7.90;;
11066;SDS011;29763;50.904;5.530;2023-03-01T01:26:07;10.03;;;7.90;;
11066;SDS011;29763;50.904;5.530;2023-03-01T01:28:35;9.27;;;7.80;;
11066;SDS011;29763;50.904;5.530;2023-03-01T01:31:01;9.27;;;8.23;;
11066;SDS011;29763;50.904;5.530;2023-03-01T01:33:27;9.77;;;8.43;;
11066;SDS011;29763;50.904;5.530;2023-03-01T01:35:53;9.60;;;8.60;;
11066;SDS011;29763;50.904;5.530;2023-03-01T01:38:20;9.67;;;8.43;;
11066;SDS011;29763;50.904;5.530;2023-03-01T01:40:46;9.60;;;8.10;;
11066;SDS011;29763;50.904;5.530;2023-03-01T01:43:19;9.13;;;8.10;;
11066;SDS011;29763;50.904;5.530;2023-03-01T01:45:58;8.80;;;7.93;;
11066;SDS011;29763;50.904;5.530;2023-03-01T01:48:49;9.87;;;7.87;;
11066;SDS011;29763;50.904;5.530;2023-03-01T01:51:18;8.80;;;7.90;;
11066;SDS011;29763;50.904;5.530;2023-03-01T01:53:51;10.03;;;8.00;;
11066;SDS011;29763;50.904;5.530;2023-03-01T01:56:21;8.53;;;7.73;;
11066;SDS011;29763;50.904;5.530;2023-03-01T01:58:49;8.60;;;7.77;;
11066;SDS011;29763;50.904;5.530;2023-03-01T02:01:15;9.67;;;7.73;;
11066;SDS011;29763;50.904;5.530;2023-03-01T02:03:43;9.83;;;7.47;;
11066;SDS011;29763;50.904;5.530;2023-03-01T02:09:00;10.10;;;7.97;;
11066;SDS011;29763;50.904;5.530;2023-03-01T02:11:29;9.37;;;8.37;;
11066;SDS011;29763;50.904;5.530;2023-03-01T02:13:56;9.23;;;8.23;;
11066;SDS011;29763;50.904;5.530;2023-03-01T02:16:22;9.97;;;8.03;;
11066;SDS011;29763;50.904;5.530;2023-03-01T02:18:48;12.53;;;8.60;;
11066;SDS011;29763;50.904;5.530;2023-03-01T02:24:10;9.37;;;8.07;;
11066;SDS011;29763;50.904;5.530;2023-03-01T02:26:58;8.43;;;7.60;;
11066;SDS011;29763;50.904;5.530;2023-03-01T02:29:26;9.00;;;8.03;;
11066;SDS011;29763;50.904;5.530;2023-03-01T02:31:54;10.00;;;8.20;;
11066;SDS011;29763;50.904;5.530;2023-03-01T02:34:24;10.53;;;8.40;;
11066;SDS011;29763;50.904;5.530;2023-03-01T02:39:46;9.77;;;8.00;;
11066;SDS011;29763;50.904;5.530;2023-03-01T02:42:15;15.03;;;8.77;;
11066;SDS011;29763;50.904;5.530;2023-03-01T02:44:51;11.10;;;8.80;;
11066;SDS011;29763;50.904;5.530;2023-03-01T02:47:18;12.40;;;9.00;;
11066;SDS011;29763;50.904;5.530;2023-03-01T02:49:47;12.77;;;9.23;;
11066;SDS011;29763;50.904;5.530;2023-03-01T02:55:26;12.93;;;8.80;;
11066;SDS011;29763;50.904;5.530;2023-03-01T02:57:55;11.97;;;9.03;;
11066;SDS011;29763;50.904;5.530;2023-03-01T03:00:26;11.60;;;8.90;;
11066;SDS011;29763;50.904;5.530;2023-03-01T03:02:58;9.60;;;8.17;;
11066;SDS011;29763;50.904;5.530;2023-03-01T03:05:28;10.40;;;8.40;;
11066;SDS011;29763;50.904;5.530;2023-03-01T03:07:55;9.37;;;7.67;;
11066;SDS011;29763;50.904;5.530;2023-03-01T03:10:23;9.17;;;7.97;;
11066;SDS011;29763;50.904;5.530;2023-03-01T03:12:55;10.10;;;8.90;;
11066;SDS011;29763;50.904;5.530;2023-03-01T03:15:26;14.77;;;8.30;;
11066;SDS011;29763;50.904;5.530;2023-03-01T03:17:52;10.87;;;8.30;;
11066;SDS011;29763;50.904;5.530;2023-03-01T03:20:20;10.10;;;8.50;;
11066;SDS011;29763;50.904;5.530;2023-03-01T03:22:49;10.33;;;8.57;;
11066;SDS011;29763;50.904;5.530;2023-03-01T03:25:17;11.53;;;9.20;;
11066;SDS011;29763;50.904;5.530;2023-03-01T03:27:45;12.17;;;9.17;;
11066;SDS011;29763;50.904;5.530;2023-03-01T03:30:13;10.63;;;9.53;;
11066;SDS011;29763;50.904;5.530;2023-03-01T03:32:42;12.07;;;10.10;;
11066;SDS011;29763;50.904;5.530;2023-03-01T03:35:18;12.80;;;10.03;;
11066;SDS011;29763;50.904;5.530;2023-03-01T03:37:50;12.40;;;9.70;;
11066;SDS011;29763;50.904;5.530;2023-03-01T03:43:22;11.50;;;10.30;;
11066;SDS011;29763;50.904;5.530;2023-03-01T03:45:49;11.33;;;10.20;;
11066;SDS011;29763;50.904;5.530;2023-03-01T03:48:18;12.70;;;10.63;;
11066;SDS011;29763;50.904;5.530;2023-03-01T03:50:55;17.13;;;10.70;;
11066;SDS011;29763;50.904;5.530;2023-03-01T03:53:22;13.63;;;9.90;;
11066;SDS011;29763;50.904;5.530;2023-03-01T03:55:49;11.23;;;9.93;;
11066;SDS011;29763;50.904;5.530;2023-03-01T03:58:16;12.47;;;9.33;;
11066;SDS011;29763;50.904;5.530;2023-03-01T04:00:45;9.90;;;8.90;;
11066;SDS011;29763;50.904;5.530;2023-03-01T04:03:12;11.40;;;9.60;;
11066;SDS011;29763;50.904;5.530;2023-03-01T04:05:40;10.07;;;9.00;;
11066;SDS011;29763;50.904;5.530;2023-03-01T04:08:08;13.93;;;10.70;;
11066;SDS011;29763;50.904;5.530;2023-03-01T04:10:44;13.00;;;10.47;;
11066;SDS011;29763;50.904;5.530;2023-03-01T04:13:16;14.37;;;10.67;;
11066;SDS011;29763;50.904;5.530;2023-03-01T04:15:50;14.47;;;10.73;;
11066;SDS011;29763;50.904;5.530;2023-03-01T04:18:17;12.73;;;10.93;;
11066;SDS011;29763;50.904;5.530;2023-03-01T04:20:46;13.53;;;11.20;;
11066;SDS011;29763;50.904;5.530;2023-03-01T04:23:14;14.30;;;11.63;;
11066;SDS011;29763;50.904;5.530;2023-03-01T04:28:34;15.60;;;11.67;;
11066;SDS011;29763;50.904;5.530;2023-03-01T04:31:12;13.93;;;11.27;;
11066;SDS011;29763;50.904;5.530;2023-03-01T04:33:43;15.77;;;11.27;;
11066;SDS011;29763;50.904;5.530;2023-03-01T04:36:11;13.13;;;10.40;;
11066;SDS011;29763;50.904;5.530;2023-03-01T04:38:39;14.57;;;11.27;;
11066;SDS011;29763;50.904;5.530;2023-03-01T04:41:06;13.10;;;10.60;;
11066;SDS011;29763;50.904;5.530;2023-03-01T04:43:33;15.33;;;11.13;;
11066;SDS011;29763;50.904;5.530;2023-03-01T04:46:06;15.03;;;11.53;;
11066;SDS011;29763;50.904;5.530;2023-03-01T04:48:34;14.17;;;11.27;;
11066;SDS011;29763;50.904;5.530;2023-03-01T04:51:01;13.73;;;11.40;;
11066;SDS011;29763;50.904;5.530;2023-03-01T04:53:28;14.47;;;11.07;;
11066;SDS011;29763;50.904;5.530;2023-03-01T04:55:55;14.17;;;10.93;;
11066;SDS011;29763;50.904;5.530;2023-03-01T04:58:24;13.63;;;12.23;;
11066;SDS011;29763;50.904;5.530;2023-03-01T05:00:51;14.00;;;11.43;;
11066;SDS011;29763;50.904;5.530;2023-03-01T05:03:18;13.40;;;11.73;;
11066;SDS011;29763;50.904;5.530;2023-03-01T05:05:45;13.03;;;11.63;;
11066;SDS011;29763;50.904;5.530;2023-03-01T05:08:14;14.30;;;12.00;;
11066;SDS011;29763;50.904;5.530;2023-03-01T05:10:48;15.70;;;12.50;;
11066;SDS011;29763;50.904;5.530;2023-03-01T05:13:16;17.03;;;12.67;;
11066;SDS011;29763;50.904;5.530;2023-03-01T05:15:47;15.67;;;12.20;;
11066;SDS011;29763;50.904;5.530;2023-03-01T05:18:18;14.83;;;12.00;;
11066;SDS011;29763;50.904;5.530;2023-03-01T05:20:43;14.30;;;11.27;;
11066;SDS011;29763;50.904;5.530;2023-03-01T05:23:11;15.63;;;12.17;;
11066;SDS011;29763;50.904;5.530;2023-03-01T05:25:36;13.33;;;11.80;;
11066;SDS011;29763;50.904;5.530;2023-03-01T05:28:05;14.93;;;12.17;;
11066;SDS011;29763;50.904;5.530;2023-03-01T05:30:36;16.67;;;13.93;;
11066;SDS011;29763;50.904;5.530;2023-03-01T05:33:04;15.43;;;12.93;;
11066;SDS011;29763;50.904;5.530;2023-03-01T05:35:35;20.03;;;16.90;;
11066;SDS011;29763;50.904;5.530;2023-03-01T05:38:01;16.80;;;13.23;;
11066;SDS011;29763;50.904;5.530;2023-03-01T05:40:27;16.23;;;13.70;;
11066;SDS011;29763;50.904;5.530;2023-03-01T05:42:55;14.60;;;12.57;;
11066;SDS011;29763;50.904;5.530;2023-03-01T05:45:23;18.93;;;13.77;;
11066;SDS011;29763;50.904;5.530;2023-03-01T05:47:50;15.00;;;13.00;;
11066;SDS011;29763;50.904;5.530;2023-03-01T05:55:31;17.50;;;12.53;;
11066;SDS011;29763;50.904;5.530;2023-03-01T05:58:00;15.77;;;13.73;;
11066;SDS011;29763;50.904;5.530;2023-03-01T06:00:27;16.43;;;12.13;;
11066;SDS011;29763;50.904;5.530;2023-03-01T06:02:54;14.57;;;12.10;;
11066;SDS011;29763;50.904;5.530;2023-03-01T06:05:22;14.33;;;12.70;;
11066;SDS011;29763;50.904;5.530;2023-03-01T06:07:49;17.20;;;12.50;;
11066;SDS011;29763;50.904;5.530;2023-03-01T06:10:16;20.53;;;13.43;;
11066;SDS011;29763;50.904;5.530;2023-03-01T06:12:43;15.53;;;13.37;;
11066;SDS011;29763;50.904;5.530;2023-03-01T06:15:10;17.03;;;11.97;;
11066;SDS011;29763;50.904;5.530;2023-03-01T06:17:38;16.43;;;13.50;;
11066;SDS011;29763;50.904;5.530;2023-03-01T06:20:07;15.20;;;13.37;;
11066;SDS011;29763;50.904;5.530;2023-03-01T06:22:42;16.30;;;13.53;;
11066;SDS011;29763;50.904;5.530;2023-03-01T06:25:09;18.27;;;13.97;;
11066;SDS011;29763;50.904;5.530;2023-03-01T06:27:35;15.57;;;12.97;;
11066;SDS011;29763;50.904;5.530;2023-03-01T06:30:02;18.20;;;13.23;;
11066;SDS011;29763;50.904;5.530;2023-03-01T06:32:29;17.03;;;13.10;;
11066;SDS011;29763;50.904;5.530;2023-03-01T06:34:56;16.80;;;12.87;;
11066;SDS011;29763;50.904;5.530;2023-03-01T06:37:23;16.17;;;13.00;;
11066;SDS011;29763;50.904;5.530;2023-03-01T06:39:49;15.03;;;13.23;;
11066;SDS011;29763;50.904;5.530;2023-03-01T06:42:17;15.33;;;12.63;;
11066;SDS011;29763;50.904;5.530;2023-03-01T06:44:43;16.33;;;13.60;;
11066;SDS011;29763;50.904;5.530;2023-03-01T06:47:10;16.37;;;14.60;;
11066;SDS011;29763;50.904;5.530;2023-03-01T06:49:37;16.93;;;13.33;;
11066;SDS011;29763;50.904;5.530;2023-03-01T06:52:08;14.97;;;12.73;;
11066;SDS011;29763;50.904;5.530;2023-03-01T06:54:34;19.53;;;14.53;;
11066;SDS011;29763;50.904;5.530;2023-03-01T06:57:01;20.27;;;13.80;;
11066;SDS011;29763;50.904;5.530;2023-03-01T06:59:26;20.20;;;13.83;;
11066;SDS011;29763;50.904;5.530;2023-03-01T07:01:54;19.60;;;13.87;;
11066;SDS011;29763;50.904;5.530;2023-03-01T07:04:19;17.97;;;14.67;;
11066;SDS011;29763;50.904;5.530;2023-03-01T07:06:45;18.87;;;15.27;;
11066;SDS011;29763;50.904;5.530;2023-03-01T07:09:17;19.17;;;15.07;;
11066;SDS011;29763;50.904;5.530;2023-03-01T07:11:44;22.47;;;15.83;;
11066;SDS011;29763;50.904;5.530;2023-03-01T07:14:12;20.00;;;15.83;;
11066;SDS011;29763;50.904;5.530;2023-03-01T07:16:38;20.63;;;15.27;;
11066;SDS011;29763;50.904;5.530;2023-03-01T07:19:03;21.27;;;16.40;;
11066;SDS011;29763;50.904;5.530;2023-03-01T07:21:30;20.07;;;16.67;;
11066;SDS011;29763;50.904;5.530;2023-03-01T07:23:56;21.87;;;16.87;;
11066;SDS011;29763;50.904;5.530;2023-03-01T07:26:21;20.87;;;17.23;;
11066;SDS011;29763;50.904;5.530;2023-03-01T07:28:47;20.77;;;15.80;;
11066;SDS011;29763;50.904;5.530;2023-03-01T07:31:13;19.23;;;15.00;;
11066;SDS011;29763;50.904;5.530;2023-03-01T07:33:40;19.07;;;15.93;;
11066;SDS011;29763;50.904;5.530;2023-03-01T07:36:06;20.73;;;15.20;;
11066;SDS011;29763;50.904;5.530;2023-03-01T07:38:32;18.27;;;15.23;;
11066;SDS011;29763;50.904;5.530;2023-03-01T07:41:01;18.87;;;14.83;;
11066;SDS011;29763;50.904;5.530;2023-03-01T07:43:29;16.80;;;13.77;;
11066;SDS011;29763;50.904;5.530;2023-03-01T07:45:57;17.83;;;14.23;;
11066;SDS011;29763;50.904;5.530;2023-03-01T07:48:25;19.57;;;14.27;;
11066;SDS011;29763;50.904;5.530;2023-03-01T07:50:59;17.17;;;14.43;;
11066;SDS011;29763;50.904;5.530;2023-03-01T07:53:28;20.20;;;13.73;;
11066;SDS011;29763;50.904;5.530;2023-03-01T07:56:10;20.67;;;13.83;;
11066;SDS011;29763;50.904;5.530;2023-03-01T07:58:38;18.10;;;13.70;;
11066;SDS011;29763;50.904;5.530;2023-03-01T08:01:07;15.97;;;13.83;;
11066;SDS011;29763;50.904;5.530;2023-03-01T08:03:36;16.97;;;14.03;;
11066;SDS011;29763;50.904;5.530;2023-03-01T08:06:03;18.00;;;13.43;;
11066;SDS011;29763;50.904;5.530;2023-03-01T08:08:30;18.00;;;13.20;;
11066;SDS011;29763;50.904;5.530;2023-03-01T08:10:57;16.00;;;13.67;;
11066;SDS011;29763;50.904;5.530;2023-03-01T08:13:27;19.13;;;14.23;;
11066;SDS011;29763;50.904;5.530;2023-03-01T08:15:53;18.00;;;13.67;;
11066;SDS011;29763;50.904;5.530;2023-03-01T08:18:19;16.77;;;12.53;;
11066;SDS011;29763;50.904;5.530;2023-03-01T08:20:46;16.73;;;13.07;;
11066;SDS011;29763;50.904;5.530;2023-03-01T08:23:13;18.67;;;12.67;;
11066;SDS011;29763;50.904;5.530;2023-03-01T08:25:38;18.47;;;13.40;;
11066;SDS011;29763;50.904;5.530;2023-03-01T08:28:04;17.97;;;13.90;;
11066;SDS011;29763;50.904;5.530;2023-03-01T08:30:31;16.17;;;12.63;;
11066;SDS011;29763;50.904;5.530;2023-03-01T08:32:56;14.20;;;12.70;;
11066;SDS011;29763;50.904;5.530;2023-03-01T08:35:22;16.77;;;12.43;;
11066;SDS011;29763;50.904;5.530;2023-03-01T08:37:48;15.70;;;12.07;;
11066;SDS011;29763;50.904;5.530;2023-03-01T08:40:15;13.17;;;11.80;;
11066;SDS011;29763;50.904;5.530;2023-03-01T08:42:42;18.80;;;12.83;;
11066;SDS011;29763;50.904;5.530;2023-03-01T08:45:08;15.20;;;12.00;;
11066;SDS011;29763;50.904;5.530;2023-03-01T08:47:35;15.47;;;12.30;;
11066;SDS011;29763;50.904;5.530;2023-03-01T08:50:01;19.57;;;12.63;;
11066;SDS011;29763;50.904;5.530;2023-03-01T08:52:26;17.77;;;12.43;;
11066;SDS011;29763;50.904;5.530;2023-03-01T08:54:52;14.97;;;11.87;;
11066;SDS011;29763;50.904;5.530;2023-03-01T08:57:18;15.40;;;11.77;;
11066;SDS011;29763;50.904;5.530;2023-03-01T08:59:44;15.37;;;12.20;;
11066;SDS011;29763;50.904;5.530;2023-03-01T09:02:11;15.67;;;12.50;;
11066;SDS011;29763;50.904;5.530;2023-03-01T09:04:39;15.13;;;12.43;;
11066;SDS011;29763;50.904;5.530;2023-03-01T09:07:07;17.03;;;12.40;;
11066;SDS011;29763;50.904;5.530;2023-03-01T09:09:33;17.97;;;13.30;;
11066;SDS011;29763;50.904;5.530;2023-03-01T09:11:59;17.60;;;12.60;;
11066;SDS011;29763;50.904;5.530;2023-03-01T09:14:25;14.93;;;12.63;;
11066;SDS011;29763;50.904;5.530;2023-03-01T09:16:51;17.10;;;12.77;;
11066;SDS011;29763;50.904;5.530;2023-03-01T09:19:18;15.57;;;12.73;;
11066;SDS011;29763;50.904;5.530;2023-03-01T09:21:46;15.50;;;12.23;;
11066;SDS011;29763;50.904;5.530;2023-03-01T09:24:22;14.10;;;12.10;;
11066;SDS011;29763;50.904;5.530;2023-03-01T09:26:48;14.70;;;11.93;;
11066;SDS011;29763;50.904;5.530;2023-03-01T09:29:15;15.70;;;12.67;;
11066;SDS011;29763;50.904;5.530;2023-03-01T09:31:41;12.77;;;11.43;;
11066;SDS011;29763;50.904;5.530;2023-03-01T09:34:08;14.93;;;11.97;;
11066;SDS011;29763;50.904;5.530;2023-03-01T09:36:34;17.53;;;12.37;;
11066;SDS011;29763;50.904;5.530;2023-03-01T09:39:00;14.73;;;11.60;;
11066;SDS011;29763;50.904;5.530;2023-03-01T09:46:52;17.10;;;12.07;;
11066;SDS011;29763;50.904;5.530;2023-03-01T09:49:19;15.03;;;12.70;;
11066;SDS011;29763;50.904;5.530;2023-03-01T09:54:44;22.83;;;14.77;;
11066;SDS011;29763;50.904;5.530;2023-03-01T09:57:26;16.30;;;13.10;;
11066;SDS011;29763;50.904;5.530;2023-03-01T10:00:04;16.90;;;12.33;;
11066;SDS011;29763;50.904;5.530;2023-03-01T10:02:40;13.50;;;11.87;;
11066;SDS011;29763;50.904;5.530;2023-03-01T10:07:58;17.07;;;13.13;;
11066;SDS011;29763;50.904;5.530;2023-03-01T10:10:39;14.37;;;12.20;;
11066;SDS011;29763;50.904;5.530;2023-03-01T10:13:17;14.47;;;12.53;;
11066;SDS011;29763;50.904;5.530;2023-03-01T10:15:47;16.17;;;13.40;;
11066;SDS011;29763;50.904;5.530;2023-03-01T10:18:29;15.80;;;12.03;;
11066;SDS011;29763;50.904;5.530;2023-03-01T10:23:25;14.00;;;12.60;;
11066;SDS011;29763;50.904;5.530;2023-03-01T10:26:05;14.90;;;12.77;;
11066;SDS011;29763;50.904;5.530;2023-03-01T10:28:50;16.87;;;13.07;;
11066;SDS011;29763;50.904;5.530;2023-03-01T10:31:24;14.77;;;12.77;;
11066;SDS011;29763;50.904;5.530;2023-03-01T10:33:54;15.97;;;12.60;;
11066;SDS011;29763;50.904;5.530;2023-03-01T10:36:22;16.17;;;12.15;;
11066;SDS011;29763;50.904;5.530;2023-03-01T10:38:54;16.17;;;12.93;;
11066;SDS011;29763;50.904;5.530;2023-03-01T10:41:23;14.67;;;12.43;;
11066;SDS011;29763;50.904;5.530;2023-03-01T10:43:51;14.35;;;12.70;;
11066;SDS011;29763;50.904;5.530;2023-03-01T10:46:22;15.13;;;13.13;;
11066;SDS011;29763;50.904;5.530;2023-03-01T10:51:51;14.15;;;12.68;;
11066;SDS011;29763;50.904;5.530;2023-03-01T10:54:29;13.93;;;12.50;;
11066;SDS011;29763;50.904;5.530;2023-03-01T10:56:59;15.15;;;12.65;;
11066;SDS011;29763;50.904;5.530;2023-03-01T10:59:27;14.95;;;11.90;;
11066;SDS011;29763;50.904;5.530;2023-03-01T11:05:13;15.60;;;12.90;;
11066;SDS011;29763;50.904;5.530;2023-03-01T11:10:30;15.00;;;13.00;;
11066;SDS011;29763;50.904;5.530;2023-03-01T11:13:14;17.00;;;12.73;;
11066;SDS011;29763;50.904;5.530;2023-03-01T11:15:42;18.40;;;12.38;;
11066;SDS011;29763;50.904;5.530;2023-03-01T11:21:01;15.45;;;13.43;;
11066;SDS011;29763;50.904;5.530;2023-03-01T11:23:28;15.90;;;12.82;;
11066;SDS011;29763;50.904;5.530;2023-03-01T11:25:56;13.98;;;12.60;;
11066;SDS011;29763;50.904;5.530;2023-03-01T11:28:30;14.30;;;12.80;;
11066;SDS011;29763;50.904;5.530;2023-03-01T11:31:02;15.07;;;12.90;;
11066;SDS011;29763;50.904;5.530;2023-03-01T11:33:39;14.35;;;12.52;;
11066;SDS011;29763;50.904;5.530;2023-03-01T11:39:15;13.50;;;12.10;;
11066;SDS011;29763;50.904;5.530;2023-03-01T11:44:46;15.15;;;13.00;;
11066;SDS011;29763;50.904;5.530;2023-03-01T11:50:41;15.15;;;12.60;;
11066;SDS011;29763;50.904;5.530;2023-03-01T11:56:05;13.77;;;12.35;;
11066;SDS011;29763;50.904;5.530;2023-03-01T12:01:50;13.38;;;11.90;;
11066;SDS011;29763;50.904;5.530;2023-03-01T12:04:36;13.25;;;11.80;;
11066;SDS011;29763;50.904;5.530;2023-03-01T12:07:39;13.88;;;12.32;;
11066;SDS011;29763;50.904;5.530;2023-03-01T12:13:17;16.02;;;13.40;;
11066;SDS011;29763;50.904;5.530;2023-03-01T12:35:34;16.75;;;12.13;;
11066;SDS011;29763;50.904;5.530;2023-03-01T12:41:00;15.52;;;12.20;;
11066;SDS011;29763;50.904;5.530;2023-03-01T12:49:08;15.65;;;12.15;;
11066;SDS011;29763;50.904;5.530;2023-03-01T12:51:36;14.73;;;12.10;;
11066;SDS011;29763;50.904;5.530;2023-03-01T12:54:11;12.88;;;11.30;;
11066;SDS011;29763;50.904;5.530;2023-03-01T12:56:40;12.85;;;10.82;;
11066;SDS011;29763;50.904;5.530;2023-03-01T12:59:15;13.55;;;11.30;;
11066;SDS011;29763;50.904;5.530;2023-03-01T13:08:12;12.73;;;11.43;;
11066;SDS011;29763;50.904;5.530;2023-03-01T13:10:49;13.27;;;11.68;;
11066;SDS011;29763;50.904;5.530;2023-03-01T13:13:27;12.95;;;10.85;;
11066;SDS011;29763;50.904;5.530;2023-03-01T13:15:54;12.65;;;11.35;;
11066;SDS011;29763;50.904;5.530;2023-03-01T13:20:54;14.05;;;11.75;;
11066;SDS011;29763;50.904;5.530;2023-03-01T13:33:51;12.57;;;11.27;;
11066;SDS011;29763;50.904;5.530;2023-03-01T13:42:03;17.73;;;15.73;;
11066;SDS011;29763;50.904;5.530;2023-03-01T13:44:30;12.82;;;11.52;;
11066;SDS011;29763;50.904;5.530;2023-03-01T13:49:35;11.93;;;10.63;;
11066;SDS011;29763;50.904;5.530;2023-03-01T13:52:27;13.82;;;10.52;;
11066;SDS011;29763;50.904;5.530;2023-03-01T13:55:29;11.90;;;10.65;;
11066;SDS011;29763;50.904;5.530;2023-03-01T13:58:25;13.73;;;10.07;;
11066;SDS011;29763;50.904;5.530;2023-03-01T14:00:55;12.25;;;10.95;;
11066;SDS011;29763;50.904;5.530;2023-03-01T14:03:25;12.52;;;10.57;;
11066;SDS011;29763;50.904;5.530;2023-03-01T14:05:58;12.15;;;10.48;;
11066;SDS011;29763;50.904;5.530;2023-03-01T14:08:27;12.70;;;10.82;;
11066;SDS011;29763;50.904;5.530;2023-03-01T14:16:09;11.93;;;10.70;;
11066;SDS011;29763;50.904;5.530;2023-03-01T14:21:46;13.68;;;10.35;;
11066;SDS011;29763;50.904;5.530;2023-03-01T14:24:20;12.38;;;10.52;;
11066;SDS011;29763;50.904;5.530;2023-03-01T14:26:47;13.25;;;11.07;;
11066;SDS011;29763;50.904;5.530;2023-03-01T14:32:29;13.27;;;10.43;;
11066;SDS011;29763;50.904;5.530;2023-03-01T14:34:57;11.98;;;10.77;;
11066;SDS011;29763;50.904;5.530;2023-03-01T14:37:28;14.50;;;10.95;;
11066;SDS011;29763;50.904;5.530;2023-03-01T14:39:59;12.80;;;10.30;;
11066;SDS011;29763;50.904;5.530;2023-03-01T14:42:30;12.15;;;10.20;;
11066;SDS011;29763;50.904;5.530;2023-03-01T14:45:00;11.48;;;9.90;;
11066;SDS011;29763;50.904;5.530;2023-03-01T14:47:31;11.85;;;9.95;;
11066;SDS011;29763;50.904;5.530;2023-03-01T14:50:00;12.60;;;9.98;;
11066;SDS011;29763;50.904;5.530;2023-03-01T14:52:36;11.25;;;10.05;;
11066;SDS011;29763;50.904;5.530;2023-03-01T14:59:07;10.07;;;9.07;;
11066;SDS011;29763;50.904;5.530;2023-03-01T15:01:34;11.70;;;9.23;;
11066;SDS011;29763;50.904;5.530;2023-03-01T15:04:00;11.30;;;9.52;;
11066;SDS011;29763;50.904;5.530;2023-03-01T15:06:27;13.38;;;9.60;;
11066;SDS011;29763;50.904;5.530;2023-03-01T15:08:53;9.60;;;8.60;;
11066;SDS011;29763;50.904;5.530;2023-03-01T15:11:31;10.90;;;9.15;;
11066;SDS011;29763;50.904;5.530;2023-03-01T15:13:58;11.00;;;8.98;;
11066;SDS011;29763;50.904;5.530;2023-03-01T15:18:58;11.05;;;9.00;;
11066;SDS011;29763;50.904;5.530;2023-03-01T15:21:48;12.10;;;9.60;;
11066;SDS011;29763;50.904;5.530;2023-03-01T15:24:16;9.95;;;8.35;;
11066;SDS011;29763;50.904;5.530;2023-03-01T15:26:53;10.70;;;9.00;;
11066;SDS011;29763;50.904;5.530;2023-03-01T15:29:27;9.68;;;8.23;;
11066;SDS011;29763;50.904;5.530;2023-03-01T15:31:57;9.40;;;8.40;;
11066;SDS011;29763;50.904;5.530;2023-03-01T15:36:56;10.55;;;7.72;;
11066;SDS011;29763;50.904;5.530;2023-03-01T15:39:37;12.27;;;9.23;;
11066;SDS011;29763;50.904;5.530;2023-03-01T15:42:07;12.10;;;7.75;;
11066;SDS011;29763;50.904;5.530;2023-03-01T15:47:36;10.20;;;7.93;;
11066;SDS011;29763;50.904;5.530;2023-03-01T15:50:05;8.87;;;7.03;;
11066;SDS011;29763;50.904;5.530;2023-03-01T15:52:46;8.70;;;7.47;;
11066;SDS011;29763;50.904;5.530;2023-03-01T15:55:16;10.33;;;8.07;;
11066;SDS011;29763;50.904;5.530;2023-03-01T15:57:59;10.00;;;7.93;;
11066;SDS011;29763;50.904;5.530;2023-03-01T16:00:28;9.33;;;7.70;;
11066;SDS011;29763;50.904;5.530;2023-03-01T16:02:54;8.93;;;7.63;;
11066;SDS011;29763;50.904;5.530;2023-03-01T16:05:22;9.23;;;7.60;;
11066;SDS011;29763;50.904;5.530;2023-03-01T16:07:53;9.83;;;8.00;;
11066;SDS011;29763;50.904;5.530;2023-03-01T16:10:19;9.33;;;7.80;;
11066;SDS011;29763;50.904;5.530;2023-03-01T16:12:46;10.87;;;7.80;;
11066;SDS011;29763;50.904;5.530;2023-03-01T16:15:18;10.20;;;8.00;;
11066;SDS011;29763;50.904;5.530;2023-03-01T16:17:49;8.53;;;7.57;;
11066;SDS011;29763;50.904;5.530;2023-03-01T16:20:15;10.93;;;7.50;;
11066;SDS011;29763;50.904;5.530;2023-03-01T16:22:42;9.37;;;7.40;;
11066;SDS011;29763;50.904;5.530;2023-03-01T16:25:09;8.50;;;7.60;;
11066;SDS011;29763;50.904;5.530;2023-03-01T16:27:37;8.83;;;7.53;;
11066;SDS011;29763;50.904;5.530;2023-03-01T16:30:03;8.90;;;7.37;;
11066;SDS011;29763;50.904;5.530;2023-03-01T16:32:38;8.77;;;7.30;;
11066;SDS011;29763;50.904;5.530;2023-03-01T16:35:08;9.27;;;7.10;;
11066;SDS011;29763;50.904;5.530;2023-03-01T16:37:36;8.20;;;7.00;;
11066;SDS011;29763;50.904;5.530;2023-03-01T16:40:03;7.83;;;6.97;;
11066;SDS011;29763;50.904;5.530;2023-03-01T16:42:36;9.20;;;6.97;;
11066;SDS011;29763;50.904;5.530;2023-03-01T16:45:02;10.37;;;7.17;;
11066;SDS011;29763;50.904;5.530;2023-03-01T16:47:32;8.70;;;7.80;;
11066;SDS011;29763;50.904;5.530;2023-03-01T16:50:01;8.93;;;7.17;;
11066;SDS011;29763;50.904;5.530;2023-03-01T16:52:27;8.00;;;7.20;;
11066;SDS011;29763;50.904;5.530;2023-03-01T16:54:53;10.07;;;7.50;;
11066;SDS011;29763;50.904;5.530;2023-03-01T16:57:19;10.13;;;7.47;;
11066;SDS011;29763;50.904;5.530;2023-03-01T16:59:54;7.53;;;6.70;;
11066;SDS011;29763;50.904;5.530;2023-03-01T17:02:21;10.87;;;7.30;;
11066;SDS011;29763;50.904;5.530;2023-03-01T17:04:56;8.90;;;7.00;;
11066;SDS011;29763;50.904;5.530;2023-03-01T17:07:24;8.30;;;7.03;;
11066;SDS011;29763;50.904;5.530;2023-03-01T17:09:50;8.20;;;6.93;;
11066;SDS011;29763;50.904;5.530;2023-03-01T17:12:17;9.80;;;7.03;;